createdAt,value
2019-03-01T00:00:34.738Z,16.97
2019-03-01T00:03:03.187Z,17.83
2019-03-01T00:05:51.096Z,19.23
2019-03-01T00:08:19.543Z,19.00
2019-03-01T00:11:16.419Z,18.20
2019-03-01T00:14:02.717Z,20.50
2019-03-01T00:16:37.066Z,20.37
2019-03-01T00:19:23.379Z,20.00
2019-03-01T00:21:55.049Z,22.17
2019-03-01T00:24:32.577Z,20.90
2019-03-01T00:27:13.460Z,22.40
2019-03-01T00:29:56.696Z,21.93
2019-03-01T00:32:46.278Z,22.63
2019-03-01T00:35:50.639Z,21.53
2019-03-01T00:38:34.194Z,21.97
2019-03-01T00:41:20.444Z,22.27
2019-03-01T00:44:03.850Z,23.20
2019-03-01T00:46:32.237Z,22.03
2019-03-01T00:49:00.615Z,23.87
2019-03-01T00:51:29.023Z,24.23
2019-03-01T00:53:57.418Z,25.13
2019-03-01T00:56:25.878Z,23.90
2019-03-01T00:58:54.259Z,25.33
2019-03-01T01:01:22.631Z,25.30
2019-03-01T01:03:51.006Z,27.60
2019-03-01T01:06:19.400Z,26.07
2019-03-01T01:08:47.796Z,26.63
2019-03-01T01:11:16.208Z,28.23
2019-03-01T01:13:44.591Z,32.00
2019-03-01T01:16:12.994Z,32.03
2019-03-01T01:18:41.370Z,34.87
2019-03-01T01:21:09.776Z,35.50
2019-03-01T01:23:38.442Z,36.07
2019-03-01T01:26:06.850Z,38.03
2019-03-01T01:28:35.281Z,39.03
2019-03-01T01:31:03.665Z,39.83
2019-03-01T01:33:32.111Z,39.33
2019-03-01T01:36:00.538Z,41.63
2019-03-01T01:38:29.188Z,41.43
2019-03-01T01:40:57.592Z,43.47
2019-03-01T01:43:25.977Z,42.73
2019-03-01T01:45:54.375Z,45.43
2019-03-01T01:48:22.787Z,46.50
2019-03-01T01:50:51.172Z,48.57
2019-03-01T01:53:19.863Z,51.03
2019-03-01T01:55:48.258Z,57.60
2019-03-01T01:58:16.955Z,62.43
2019-03-01T02:00:45.327Z,63.77
2019-03-01T02:03:13.748Z,68.43
2019-03-01T02:05:42.154Z,72.57
2019-03-01T02:08:10.555Z,69.93
2019-03-01T02:10:39.221Z,70.50
2019-03-01T02:13:07.623Z,76.87
2019-03-01T02:15:36.010Z,91.03
2019-03-01T02:18:04.690Z,86.70
2019-03-01T02:20:33.054Z,103.77
2019-03-01T02:23:01.469Z,105.23
2019-03-01T02:25:29.858Z,109.57
2019-03-01T02:27:58.256Z,109.93
2019-03-01T02:30:30.058Z,107.73
2019-03-01T02:32:58.456Z,112.77
2019-03-01T02:35:27.118Z,121.23
2019-03-01T02:37:55.547Z,121.87
2019-03-01T02:40:24.394Z,126.10
2019-03-01T02:42:52.822Z,120.70
2019-03-01T02:45:22.137Z,125.63
2019-03-01T02:47:50.557Z,128.63
2019-03-01T02:50:20.385Z,126.93
2019-03-01T02:52:48.785Z,120.00
2019-03-01T02:55:18.916Z,113.20
2019-03-01T02:57:47.341Z,109.50
2019-03-01T03:00:29.080Z,104.33
2019-03-01T03:02:57.501Z,104.20
2019-03-01T03:05:25.906Z,103.80
2019-03-01T03:08:01.966Z,99.23
2019-03-01T03:10:30.643Z,95.27
2019-03-01T03:13:04.533Z,91.50
2019-03-01T03:15:34.583Z,93.87
2019-03-01T03:18:02.960Z,88.43
2019-03-01T03:20:31.329Z,75.80
2019-03-01T03:22:59.782Z,71.07
2019-03-01T03:25:28.190Z,69.43
2019-03-01T03:27:56.596Z,65.07
2019-03-01T03:30:25.362Z,65.63
2019-03-01T03:32:53.844Z,60.03
2019-03-01T03:35:22.247Z,48.90
2019-03-01T03:37:50.614Z,48.40
2019-03-01T03:40:19.025Z,41.77
2019-03-01T03:42:47.457Z,42.97
2019-03-01T03:45:17.085Z,36.93
2019-03-01T03:47:45.412Z,37.60
2019-03-01T03:50:15.726Z,36.50
2019-03-01T03:52:44.401Z,36.57
2019-03-01T03:55:14.616Z,36.90
2019-03-01T03:57:43.045Z,36.47
2019-03-01T04:00:23.316Z,36.30
2019-03-01T04:02:51.695Z,39.75
2019-03-01T04:05:20.102Z,40.13
2019-03-01T04:07:48.477Z,42.85
2019-03-01T04:10:16.915Z,40.53
2019-03-01T04:12:45.322Z,41.55
2019-03-01T04:15:17.114Z,44.13
2019-03-01T04:17:45.520Z,43.42
2019-03-01T04:20:17.675Z,43.70
2019-03-01T04:22:46.070Z,43.03
2019-03-01T04:25:14.453Z,42.53
2019-03-01T04:27:42.857Z,41.70
2019-03-01T04:30:16.287Z,42.20
2019-03-01T04:32:44.760Z,41.07
2019-03-01T04:35:13.927Z,39.17
2019-03-01T04:37:42.378Z,38.70
2019-03-01T04:40:14.817Z,41.73
2019-03-01T04:42:43.228Z,39.38
2019-03-01T04:45:13.529Z,39.92
2019-03-01T04:47:42.004Z,35.17
2019-03-01T04:50:11.408Z,37.40
2019-03-01T04:52:39.995Z,35.60
2019-03-01T04:55:11.600Z,40.98
2019-03-01T04:57:39.988Z,36.03
2019-03-01T05:00:14.438Z,37.75
2019-03-01T05:02:42.927Z,38.20
2019-03-01T05:05:11.399Z,37.35
2019-03-01T05:07:39.821Z,34.75
2019-03-01T05:10:11.139Z,35.38
2019-03-01T05:12:39.916Z,34.35
2019-03-01T05:15:14.613Z,34.83
2019-03-01T05:17:43.343Z,30.20
2019-03-01T05:20:11.707Z,32.40
2019-03-01T05:22:40.086Z,31.33
2019-03-01T05:25:10.126Z,34.20
2019-03-01T05:27:38.589Z,34.23
2019-03-01T05:30:10.233Z,35.65
2019-03-01T05:32:38.647Z,36.93
2019-03-01T05:35:07.602Z,41.13
2019-03-01T05:37:35.973Z,42.17
2019-03-01T05:40:07.163Z,41.65
2019-03-01T05:42:35.546Z,42.15
2019-03-01T05:45:06.474Z,42.90
2019-03-01T05:47:35.168Z,42.93
2019-03-01T05:50:06.997Z,44.42
2019-03-01T05:52:35.545Z,42.80
2019-03-01T05:55:05.579Z,42.40
2019-03-01T05:57:33.988Z,41.60
2019-03-01T06:00:02.395Z,40.10
2019-03-01T06:02:36.611Z,40.80
2019-03-01T06:05:08.434Z,42.25
2019-03-01T06:07:51.799Z,44.77
2019-03-01T06:10:29.167Z,46.02
2019-03-01T06:13:15.925Z,43.23
2019-03-01T06:15:53.569Z,45.17
2019-03-01T06:18:50.946Z,44.85
2019-03-01T06:21:41.648Z,44.77
2019-03-01T06:24:29.860Z,41.95
2019-03-01T06:27:16.435Z,41.65
2019-03-01T06:29:54.329Z,43.55
2019-03-01T06:32:37.821Z,44.40
2019-03-01T06:35:24.050Z,42.78
2019-03-01T06:37:55.720Z,43.85
2019-03-01T06:40:54.472Z,42.10
2019-03-01T06:43:41.048Z,42.62
2019-03-01T06:46:27.323Z,40.73
2019-03-01T06:48:57.345Z,38.90
2019-03-01T06:51:29.094Z,40.75
2019-03-01T06:53:57.472Z,39.92
2019-03-01T06:56:25.854Z,39.40
2019-03-01T06:58:54.817Z,40.15
2019-03-01T07:01:24.159Z,36.55
2019-03-01T07:03:53.562Z,37.90
2019-03-01T07:06:21.964Z,38.55
2019-03-01T07:08:50.376Z,37.20
2019-03-01T07:11:18.765Z,36.28
2019-03-01T07:13:47.147Z,38.00
2019-03-01T07:16:15.538Z,35.75
2019-03-01T07:18:43.952Z,34.25
2019-03-01T07:21:12.362Z,34.30
2019-03-01T07:23:40.774Z,34.38
2019-03-01T07:26:09.177Z,32.93
2019-03-01T07:28:37.608Z,34.27
2019-03-01T07:31:07.099Z,33.42
2019-03-01T07:33:35.842Z,32.78
2019-03-01T07:36:04.231Z,31.75
2019-03-01T07:38:32.613Z,28.20
2019-03-01T07:41:01.020Z,27.32
2019-03-01T07:43:29.398Z,26.75
2019-03-01T07:45:57.824Z,24.55
2019-03-01T07:48:26.211Z,24.47
2019-03-01T07:50:55.262Z,22.40
2019-03-01T07:53:24.426Z,22.17
2019-03-01T07:55:52.826Z,19.95
2019-03-01T07:58:21.719Z,17.55
2019-03-01T08:00:53.552Z,17.23
2019-03-01T08:03:21.314Z,16.82
2019-03-01T08:05:49.712Z,18.48
2019-03-01T08:08:18.110Z,17.32
2019-03-01T08:10:46.527Z,16.95
2019-03-01T08:13:17.741Z,17.77
2019-03-01T08:15:45.958Z,16.40
2019-03-01T08:18:14.568Z,16.65
2019-03-01T08:20:42.997Z,16.17
2019-03-01T08:23:11.385Z,16.35
2019-03-01T08:25:39.771Z,16.67
2019-03-01T08:28:08.206Z,16.17
2019-03-01T08:30:36.558Z,16.57
2019-03-01T08:33:06.957Z,16.30
2019-03-01T08:35:34.989Z,14.35
2019-03-01T08:38:03.424Z,13.13
2019-03-01T08:40:32.091Z,12.58
2019-03-01T08:43:00.775Z,12.18
2019-03-01T08:45:29.769Z,12.25
2019-03-01T08:47:59.711Z,11.73
2019-03-01T08:50:28.137Z,11.63
2019-03-01T08:52:56.529Z,9.93
2019-03-01T08:55:29.735Z,10.17
2019-03-01T08:58:02.550Z,10.10
2019-03-01T09:00:39.996Z,8.98
2019-03-01T09:03:11.680Z,8.45
2019-03-01T09:05:40.062Z,7.70
2019-03-01T09:08:08.452Z,6.80
2019-03-01T09:10:36.833Z,7.00
2019-03-01T09:13:05.327Z,7.12
2019-03-01T09:15:33.700Z,7.55
2019-03-01T09:18:02.103Z,6.75
2019-03-01T09:20:32.442Z,6.75
2019-03-01T09:23:04.999Z,6.80
2019-03-01T09:25:30.566Z,6.92
2019-03-01T09:27:58.924Z,6.90
2019-03-01T09:30:27.351Z,6.72
2019-03-01T09:32:55.740Z,7.20
2019-03-01T09:35:29.782Z,6.62
2019-03-01T09:37:58.469Z,5.50
2019-03-01T09:40:28.851Z,5.73
2019-03-01T09:42:56.890Z,4.00
2019-03-01T09:45:25.305Z,4.37
2019-03-01T09:47:53.690Z,4.23
2019-03-01T09:50:22.104Z,3.63
2019-03-01T09:52:50.771Z,4.57
2019-03-01T09:55:19.185Z,4.22
2019-03-01T09:57:47.545Z,4.63
2019-03-01T10:00:34.202Z,4.13
2019-03-01T10:03:02.587Z,4.43
2019-03-01T10:05:30.974Z,4.13
2019-03-01T10:07:59.355Z,4.33
2019-03-01T10:10:29.953Z,4.70
2019-03-01T10:12:58.352Z,4.13
2019-03-01T10:15:26.734Z,4.07
2019-03-01T10:17:55.159Z,3.47
2019-03-01T10:20:23.543Z,4.20
2019-03-01T10:22:51.937Z,4.07
2019-03-01T10:25:20.888Z,4.20
2019-03-01T10:27:49.290Z,4.90
2019-03-01T10:30:20.932Z,3.60
2019-03-01T10:32:49.337Z,4.23
2019-03-01T10:35:17.697Z,4.07
2019-03-01T10:37:46.094Z,4.17
2019-03-01T10:40:17.730Z,3.67
2019-03-01T10:42:46.126Z,4.17
2019-03-01T10:45:31.247Z,3.90
2019-03-01T10:47:59.657Z,5.70
2019-03-01T10:50:28.046Z,4.63
2019-03-01T10:52:56.439Z,3.90
2019-03-01T10:55:24.817Z,4.23
2019-03-01T10:57:53.159Z,4.77
2019-03-01T11:00:27.821Z,3.47
2019-03-01T11:02:56.860Z,3.40
2019-03-01T11:05:25.682Z,4.87
2019-03-01T11:07:54.756Z,4.23
2019-03-01T11:10:28.291Z,4.90
2019-03-01T11:12:56.761Z,3.50
2019-03-01T11:15:25.178Z,4.07
2019-03-01T11:17:53.561Z,4.20
2019-03-01T11:20:22.704Z,4.17
2019-03-01T11:22:51.092Z,5.97
2019-03-01T11:25:24.078Z,4.53
2019-03-01T11:27:52.742Z,4.00
2019-03-01T11:30:26.661Z,4.00
2019-03-01T11:32:55.037Z,3.47
2019-03-01T11:35:23.415Z,3.43
2019-03-01T11:37:51.859Z,4.00
2019-03-01T11:40:25.430Z,4.33
2019-03-01T11:42:55.624Z,4.37
2019-03-01T11:45:24.291Z,3.90
2019-03-01T11:47:52.702Z,4.23
2019-03-01T11:50:22.906Z,3.23
2019-03-01T11:52:51.561Z,3.93
2019-03-01T11:55:20.235Z,3.07
2019-03-01T11:57:48.705Z,4.00
2019-03-01T12:00:23.031Z,3.90
2019-03-01T12:02:51.522Z,3.30
2019-03-01T12:05:20.168Z,4.03
2019-03-01T12:07:48.514Z,3.60
2019-03-01T12:10:20.187Z,3.73
2019-03-01T12:12:48.582Z,3.77
2019-03-01T12:15:17.053Z,4.20
2019-03-01T12:17:45.428Z,4.00
2019-03-01T12:20:16.044Z,4.43
2019-03-01T12:22:44.490Z,3.83
2019-03-01T12:25:12.909Z,4.30
2019-03-01T12:27:41.285Z,4.90
2019-03-01T12:30:17.401Z,4.13
2019-03-01T12:32:45.775Z,4.20
2019-03-01T12:35:14.198Z,4.50
2019-03-01T12:37:42.585Z,4.30
2019-03-01T12:40:13.597Z,4.00
2019-03-01T12:42:41.987Z,4.13
2019-03-01T12:45:13.361Z,4.03
2019-03-01T12:47:41.746Z,3.87
2019-03-01T12:50:13.883Z,3.63
2019-03-01T12:52:42.534Z,3.70
2019-03-01T12:55:22.929Z,3.63
2019-03-01T12:57:51.324Z,3.80
2019-03-01T13:00:24.805Z,4.00
2019-03-01T13:02:53.456Z,4.33
2019-03-01T13:05:21.916Z,3.53
2019-03-01T13:07:50.367Z,3.30
2019-03-01T13:10:27.096Z,4.13
2019-03-01T13:12:58.585Z,3.37
2019-03-01T13:15:25.549Z,3.80
2019-03-01T13:17:53.917Z,3.60
2019-03-01T13:20:22.328Z,3.23
2019-03-01T13:22:50.710Z,3.17
2019-03-01T13:25:19.199Z,2.97
2019-03-01T13:27:48.890Z,3.57
2019-03-01T13:30:25.104Z,3.13
2019-03-01T13:32:55.054Z,3.23
2019-03-01T13:35:26.086Z,3.30
2019-03-01T13:37:55.539Z,3.50
2019-03-01T13:40:24.431Z,3.17
2019-03-01T13:42:53.629Z,3.80
2019-03-01T13:45:26.322Z,3.00
2019-03-01T13:47:54.722Z,2.77
2019-03-01T13:50:23.236Z,3.90
2019-03-01T13:52:51.654Z,2.63
2019-03-01T13:55:22.206Z,3.70
2019-03-01T13:57:51.393Z,3.00
2019-03-01T14:00:22.822Z,3.50
2019-03-01T14:02:51.509Z,3.50
2019-03-01T14:05:19.914Z,3.17
2019-03-01T14:07:52.242Z,3.27
2019-03-01T14:10:27.152Z,3.73
2019-03-01T14:12:55.571Z,3.23
2019-03-01T14:15:23.962Z,3.80
2019-03-01T14:17:52.624Z,2.67
2019-03-01T14:20:21.956Z,2.57
2019-03-01T14:22:50.347Z,2.40
2019-03-01T14:25:18.786Z,2.50
2019-03-01T14:27:47.193Z,2.90
2019-03-01T14:30:19.320Z,2.33
2019-03-01T14:32:47.730Z,2.60
2019-03-01T14:35:16.111Z,3.07
2019-03-01T14:37:44.493Z,3.03
2019-03-01T14:40:18.992Z,2.83
2019-03-01T14:42:47.519Z,2.83
2019-03-01T14:45:29.206Z,3.97
2019-03-01T14:47:57.578Z,2.73
2019-03-01T14:50:30.151Z,3.43
2019-03-01T14:52:58.641Z,2.70
2019-03-01T14:55:33.578Z,3.17
2019-03-01T14:58:08.039Z,3.07
2019-03-01T15:00:49.601Z,3.30
2019-03-01T15:03:18.985Z,3.53
2019-03-01T15:05:47.367Z,3.80
2019-03-01T15:08:15.781Z,3.80
2019-03-01T15:10:44.131Z,3.90
2019-03-01T15:13:12.565Z,4.47
2019-03-01T15:15:40.957Z,4.67
2019-03-01T15:18:09.356Z,5.47
2019-03-01T15:20:38.300Z,4.33
2019-03-01T15:23:06.708Z,4.07
2019-03-01T15:25:35.207Z,5.23
2019-03-01T15:28:03.677Z,5.07
2019-03-01T15:30:32.041Z,4.60
2019-03-01T15:33:00.436Z,5.70
2019-03-01T15:35:29.109Z,5.83
2019-03-01T15:37:57.537Z,5.30
2019-03-01T15:40:27.835Z,6.63
2019-03-01T15:42:55.960Z,6.30
2019-03-01T15:45:24.348Z,6.37
2019-03-01T15:47:52.746Z,5.97
2019-03-01T15:50:23.696Z,7.00
2019-03-01T15:52:51.201Z,7.33
2019-03-01T15:55:19.595Z,8.23
2019-03-01T15:57:47.966Z,7.97
2019-03-01T16:00:18.561Z,7.20
2019-03-01T16:02:49.987Z,7.30
2019-03-01T16:05:17.014Z,7.60
2019-03-01T16:07:45.413Z,8.13
2019-03-01T16:10:16.333Z,8.03
2019-03-01T16:12:44.712Z,7.60
2019-03-01T16:15:18.861Z,8.43
2019-03-01T16:17:47.236Z,8.27
2019-03-01T16:20:18.355Z,8.23
2019-03-01T16:22:46.658Z,8.70
2019-03-01T16:25:17.237Z,8.07
2019-03-01T16:27:46.530Z,8.37
2019-03-01T16:30:18.858Z,8.33
2019-03-01T16:32:50.360Z,8.73
2019-03-01T16:35:19.572Z,8.77
2019-03-01T16:37:53.768Z,7.90
2019-03-01T16:40:22.092Z,8.60
2019-03-01T16:42:54.427Z,9.40
2019-03-01T16:45:21.121Z,9.07
2019-03-01T16:47:50.325Z,8.90
2019-03-01T16:50:19.982Z,8.37
2019-03-01T16:52:48.372Z,8.90
2019-03-01T16:55:20.953Z,8.87
2019-03-01T16:57:52.318Z,9.80
2019-03-01T17:00:24.505Z,8.60
2019-03-01T17:03:16.644Z,7.90
2019-03-01T17:05:43.200Z,8.87
2019-03-01T17:08:11.575Z,9.00
2019-03-01T17:10:40.257Z,10.43
2019-03-01T17:13:08.636Z,8.70
2019-03-01T17:15:37.019Z,8.97
2019-03-01T17:18:08.624Z,9.10
2019-03-01T17:20:38.427Z,8.87
2019-03-01T17:23:05.460Z,8.40
2019-03-01T17:25:34.123Z,8.53
2019-03-01T17:28:02.521Z,8.97
2019-03-01T17:30:30.902Z,8.20
2019-03-01T17:32:59.571Z,9.00
2019-03-01T17:35:28.025Z,9.17
2019-03-01T17:37:56.398Z,8.67
2019-03-01T17:40:24.790Z,9.00
2019-03-01T17:42:56.263Z,8.67
2019-03-01T17:45:24.154Z,8.70
2019-03-01T17:47:52.587Z,9.33
2019-03-01T17:50:20.964Z,8.47
2019-03-01T17:52:49.443Z,9.00
2019-03-01T17:55:24.226Z,8.90
2019-03-01T17:57:52.385Z,8.87
2019-03-01T18:00:40.373Z,8.50
2019-03-01T18:03:08.784Z,8.60
2019-03-01T18:05:40.402Z,8.83
2019-03-01T18:08:07.223Z,9.60
2019-03-01T18:10:35.627Z,9.60
2019-03-01T18:13:03.997Z,9.97
2019-03-01T18:15:32.418Z,10.57
2019-03-01T18:18:00.818Z,10.53
2019-03-01T18:20:29.209Z,11.77
2019-03-01T18:22:59.427Z,11.17
2019-03-01T18:25:27.705Z,10.87
2019-03-01T18:27:56.106Z,11.73
2019-03-01T18:30:33.507Z,11.63
2019-03-01T18:33:02.143Z,11.77
2019-03-01T18:35:30.595Z,11.50
2019-03-01T18:37:59.006Z,11.85
2019-03-01T18:40:29.408Z,11.50
2019-03-01T18:42:58.750Z,12.33
2019-03-01T18:45:27.666Z,13.03
2019-03-01T18:47:56.010Z,12.83
2019-03-01T18:50:31.352Z,13.73
2019-03-01T18:53:03.635Z,14.07
2019-03-01T18:55:31.442Z,14.07
2019-03-01T18:57:59.863Z,14.05
2019-03-01T19:00:40.179Z,14.47
2019-03-01T19:03:08.595Z,15.25
2019-03-01T19:05:40.338Z,14.95
2019-03-01T19:08:07.063Z,15.48
2019-03-01T19:10:36.199Z,14.90
2019-03-01T19:13:04.761Z,15.65
2019-03-01T19:15:33.328Z,16.77
2019-03-01T19:18:01.738Z,18.07
2019-03-01T19:20:33.423Z,17.17
2019-03-01T19:23:01.848Z,17.82
2019-03-01T19:25:30.500Z,17.63
2019-03-01T19:27:58.910Z,17.93
2019-03-01T19:30:27.303Z,17.17
2019-03-01T19:32:58.967Z,18.05
2019-03-01T19:35:29.775Z,18.77
2019-03-01T19:37:55.802Z,17.67
2019-03-01T19:40:24.415Z,19.63
2019-03-01T19:42:52.795Z,18.73
2019-03-01T19:45:21.216Z,21.57
2019-03-01T19:47:49.580Z,20.63
2019-03-01T19:50:25.003Z,21.27
2019-03-01T19:52:53.453Z,20.03
2019-03-01T19:55:22.161Z,19.47
2019-03-01T19:57:50.564Z,20.73
2019-03-01T20:00:24.910Z,21.13
2019-03-01T20:02:53.320Z,21.07
2019-03-01T20:05:33.729Z,22.48
2019-03-01T20:08:02.400Z,21.50
2019-03-01T20:10:30.814Z,21.40
2019-03-01T20:12:59.191Z,22.10
2019-03-01T20:15:28.636Z,21.77
2019-03-01T20:17:57.011Z,22.33
2019-03-01T20:20:26.061Z,23.37
2019-03-01T20:22:55.248Z,23.90
2019-03-01T20:25:23.775Z,22.53
2019-03-01T20:27:52.141Z,23.02
2019-03-01T20:30:30.717Z,24.30
2019-03-01T20:32:59.266Z,22.70
2019-03-01T20:35:27.634Z,22.63
2019-03-01T20:37:56.109Z,22.97
2019-03-01T20:40:26.701Z,23.60
2019-03-01T20:42:55.974Z,23.77
2019-03-01T20:45:34.619Z,23.97
2019-03-01T20:48:02.502Z,24.87
2019-03-01T20:50:30.897Z,23.95
2019-03-01T20:52:59.301Z,24.10
2019-03-01T20:55:27.687Z,23.67
2019-03-01T20:57:56.109Z,24.47
2019-03-01T21:00:27.343Z,24.80
2019-03-01T21:02:56.698Z,25.57
2019-03-01T21:05:28.725Z,25.50
2019-03-01T21:07:55.992Z,25.15
2019-03-01T21:10:26.852Z,24.60
2019-03-01T21:12:55.260Z,24.23
2019-03-01T21:15:23.641Z,24.97
2019-03-01T21:17:52.963Z,25.33
2019-03-01T21:20:22.123Z,24.20
2019-03-01T21:22:50.531Z,26.63
2019-03-01T21:25:22.734Z,27.97
2019-03-01T21:27:51.125Z,27.53
2019-03-01T21:30:27.912Z,26.93
2019-03-01T21:32:56.606Z,26.45
2019-03-01T21:35:25.000Z,26.00
2019-03-01T21:37:53.582Z,24.40
2019-03-01T21:40:21.966Z,26.70
2019-03-01T21:42:52.919Z,26.00
2019-03-01T21:45:25.157Z,27.93
2019-03-01T21:47:53.579Z,28.13
2019-03-01T21:50:21.950Z,28.63
2019-03-01T21:52:50.359Z,30.37
2019-03-01T21:55:21.247Z,30.20
2019-03-01T21:57:49.628Z,27.27
2019-03-01T22:00:29.077Z,29.20
2019-03-01T22:02:55.221Z,29.67
2019-03-01T22:05:23.654Z,29.80
2019-03-01T22:07:52.116Z,31.60
2019-03-01T22:10:20.533Z,30.60
2019-03-01T22:12:48.911Z,30.60
2019-03-01T22:15:27.001Z,33.40
2019-03-01T22:17:55.781Z,32.77
2019-03-01T22:20:24.202Z,31.93
2019-03-01T22:22:52.592Z,34.97
2019-03-01T22:25:20.971Z,34.20
2019-03-01T22:27:49.399Z,33.30
2019-03-01T22:30:34.402Z,35.53
2019-03-01T22:33:02.751Z,33.57
2019-03-01T22:35:31.118Z,34.90
2019-03-01T22:38:00.819Z,35.33
2019-03-01T22:40:29.623Z,35.40
2019-03-01T22:42:58.020Z,35.20
2019-03-01T22:45:26.424Z,37.33
2019-03-01T22:47:54.830Z,36.60
2019-03-01T22:50:23.241Z,35.10
2019-03-01T22:52:51.634Z,35.63
2019-03-01T22:55:20.460Z,36.03
2019-03-01T22:57:48.928Z,37.50
2019-03-01T23:00:47.296Z,35.57
2019-03-01T23:03:18.791Z,35.83
2019-03-01T23:05:46.498Z,37.70
2019-03-01T23:08:14.936Z,39.37
2019-03-01T23:10:43.564Z,37.60
2019-03-01T23:13:11.973Z,37.80
2019-03-01T23:15:43.435Z,37.73
2019-03-01T23:18:10.400Z,38.03
2019-03-01T23:20:38.791Z,37.37
2019-03-01T23:23:07.203Z,36.57
2019-03-01T23:25:35.562Z,38.67
2019-03-01T23:28:07.657Z,39.13
2019-03-01T23:30:34.284Z,37.37
2019-03-01T23:33:02.692Z,39.70
2019-03-01T23:35:31.062Z,37.67
2019-03-01T23:37:59.715Z,39.00
2019-03-01T23:40:28.109Z,38.63
2019-03-01T23:42:57.138Z,40.73
2019-03-01T23:45:25.572Z,39.40
2019-03-01T23:47:53.975Z,38.73
2019-03-01T23:50:22.366Z,39.53
2019-03-01T23:52:50.779Z,40.33
2019-03-01T23:55:19.935Z,39.53
2019-03-01T23:57:48.692Z,40.47
